sensor_id;sensor_type;location;lat;lon;timestamp;pressure;altitude;pressure_sealevel;temperature;humidity
26376;BME280;30544;42.196;24.336;2022-07-29T00:01:26;99177.03;;;24.11;58.04
26376;BME280;30544;42.196;24.336;2022-07-29T00:03:52;99174.88;;;24.08;58.18
26376;BME280;30544;42.196;24.336;2022-07-29T00:06:19;99175.31;;;23.72;59.08
26376;BME280;30544;42.196;24.336;2022-07-29T00:08:47;99182.63;;;23.73;58.63
26376;BME280;30544;42.196;24.336;2022-07-29T00:11:15;99178.78;;;23.78;58.78
26376;BME280;30544;42.196;24.336;2022-07-29T00:13:41;99175.47;;;23.76;58.09
26376;BME280;30544;42.196;24.336;2022-07-29T00:16:08;99177.94;;;23.86;58.11
26376;BME280;30544;42.196;24.336;2022-07-29T00:18:35;99181.44;;;23.91;57.50
26376;BME280;30544;42.196;24.336;2022-07-29T00:21:02;99176.72;;;24.04;57.20
26376;BME280;30544;42.196;24.336;2022-07-29T00:23:28;99183.63;;;23.86;56.53
26376;BME280;30544;42.196;24.336;2022-07-29T00:25:57;99180.06;;;23.97;56.37
26376;BME280;30544;42.196;24.336;2022-07-29T00:28:23;99174.63;;;23.75;56.99
26376;BME280;30544;42.196;24.336;2022-07-29T00:30:51;99176.97;;;23.73;57.31
26376;BME280;30544;42.196;24.336;2022-07-29T00:33:18;99170.47;;;23.73;57.53
26376;BME280;30544;42.196;24.336;2022-07-29T00:35:45;99168.31;;;23.52;57.84
26376;BME280;30544;42.196;24.336;2022-07-29T00:38:12;99167.63;;;23.55;57.80
26376;BME280;30544;42.196;24.336;2022-07-29T00:40:40;99167.47;;;23.43;57.98
26376;BME280;30544;42.196;24.336;2022-07-29T00:43:09;99148.50;;;23.52;58.02
26376;BME280;30544;42.196;24.336;2022-07-29T00:45:36;99166.81;;;23.29;58.41
26376;BME280;30544;42.196;24.336;2022-07-29T00:48:03;99168.97;;;23.32;58.08
26376;BME280;30544;42.196;24.336;2022-07-29T00:50:31;99163.31;;;23.32;58.60
26376;BME280;30544;42.196;24.336;2022-07-29T00:52:59;99170.28;;;23.34;58.36
26376;BME280;30544;42.196;24.336;2022-07-29T00:55:27;99172.47;;;23.29;58.22
26376;BME280;30544;42.196;24.336;2022-07-29T00:57:55;99169.66;;;23.20;58.49
26376;BME280;30544;42.196;24.336;2022-07-29T01:00:27;99168.16;;;23.23;58.36
26376;BME280;30544;42.196;24.336;2022-07-29T01:02:54;99173.66;;;23.36;57.72
26376;BME280;30544;42.196;24.336;2022-07-29T01:05:22;99175.97;;;23.34;57.96
26376;BME280;30544;42.196;24.336;2022-07-29T01:07:52;99170.13;;;23.14;58.28
26376;BME280;30544;42.196;24.336;2022-07-29T01:10:20;99163.50;;;23.18;57.55
26376;BME280;30544;42.196;24.336;2022-07-29T01:12:49;99163.50;;;23.27;57.77
26376;BME280;30544;42.196;24.336;2022-07-29T01:15:17;99141.19;;;23.17;57.80
26376;BME280;30544;42.196;24.336;2022-07-29T01:17:50;99165.16;;;23.10;58.13
26376;BME280;30544;42.196;24.336;2022-07-29T01:20:24;99161.81;;;23.08;58.72
26376;BME280;30544;42.196;24.336;2022-07-29T01:23:13;99167.75;;;22.81;59.08
26376;BME280;30544;42.196;24.336;2022-07-29T01:26:22;99159.38;;;22.59;60.46
26376;BME280;30544;42.196;24.336;2022-07-29T01:29:02;99160.59;;;22.75;59.94
26376;BME280;30544;42.196;24.336;2022-07-29T01:31:35;99162.75;;;22.69;60.18
26376;BME280;30544;42.196;24.336;2022-07-29T01:34:08;99158.94;;;22.74;60.23
26376;BME280;30544;42.196;24.336;2022-07-29T01:36:39;99154.91;;;22.58;60.76
26376;BME280;30544;42.196;24.336;2022-07-29T01:39:10;99157.34;;;22.50;61.33
26376;BME280;30544;42.196;24.336;2022-07-29T01:44:29;99148.94;;;22.76;60.72
26376;BME280;30544;42.196;24.336;2022-07-29T01:46:59;99164.25;;;22.75;61.53
26376;BME280;30544;42.196;24.336;2022-07-29T01:49:29;99153.81;;;22.93;60.74
26376;BME280;30544;42.196;24.336;2022-07-29T01:52:02;99151.59;;;22.81;61.04
26376;BME280;30544;42.196;24.336;2022-07-29T01:54:35;99155.78;;;22.84;61.39
26376;BME280;30544;42.196;24.336;2022-07-29T01:57:04;99159.34;;;22.41;63.46
26376;BME280;30544;42.196;24.336;2022-07-29T01:59:36;99154.06;;;22.57;63.19
26376;BME280;30544;42.196;24.336;2022-07-29T02:02:04;99151.19;;;22.48;64.00
26376;BME280;30544;42.196;24.336;2022-07-29T02:04:35;99152.69;;;22.46;63.97
26376;BME280;30544;42.196;24.336;2022-07-29T02:07:05;99163.59;;;22.30;64.67
26376;BME280;30544;42.196;24.336;2022-07-29T02:09:34;99155.56;;;22.55;64.95
26376;BME280;30544;42.196;24.336;2022-07-29T02:12:04;99156.50;;;22.41;65.66
26376;BME280;30544;42.196;24.336;2022-07-29T02:14:36;99157.13;;;22.30;66.45
26376;BME280;30544;42.196;24.336;2022-07-29T02:17:03;99157.44;;;22.19;66.99
26376;BME280;30544;42.196;24.336;2022-07-29T02:19:32;99154.78;;;21.92;68.58
26376;BME280;30544;42.196;24.336;2022-07-29T02:22:00;99149.44;;;21.90;68.60
26376;BME280;30544;42.196;24.336;2022-07-29T02:24:28;99147.78;;;21.89;69.48
26376;BME280;30544;42.196;24.336;2022-07-29T02:26:57;99142.81;;;21.95;68.78
26376;BME280;30544;42.196;24.336;2022-07-29T02:29:26;99150.28;;;21.91;68.66
26376;BME280;30544;42.196;24.336;2022-07-29T02:31:56;99147.84;;;21.45;70.74
26376;BME280;30544;42.196;24.336;2022-07-29T02:34:24;99145.66;;;21.42;71.01
26376;BME280;30544;42.196;24.336;2022-07-29T02:36:52;99140.81;;;21.34;71.22
26376;BME280;30544;42.196;24.336;2022-07-29T02:39:21;99142.59;;;21.52;70.98
26376;BME280;30544;42.196;24.336;2022-07-29T02:41:51;99136.72;;;21.71;70.13
26376;BME280;30544;42.196;24.336;2022-07-29T02:44:21;99133.19;;;21.87;69.85
26376;BME280;30544;42.196;24.336;2022-07-29T02:46:53;99134.44;;;21.81;70.43
26376;BME280;30544;42.196;24.336;2022-07-29T02:49:32;99138.06;;;21.73;70.90
26376;BME280;30544;42.196;24.336;2022-07-29T02:52:03;99139.81;;;21.91;69.72
26376;BME280;30544;42.196;24.336;2022-07-29T02:54:33;99149.72;;;21.80;69.41
26376;BME280;30544;42.196;24.336;2022-07-29T02:57:08;99147.94;;;21.62;70.21
26376;BME280;30544;42.196;24.336;2022-07-29T02:59:36;99147.78;;;21.58;69.84
26376;BME280;30544;42.196;24.336;2022-07-29T03:02:08;99154.59;;;21.66;69.97
26376;BME280;30544;42.196;24.336;2022-07-29T03:04:39;99156.31;;;21.67;70.57
26376;BME280;30544;42.196;24.336;2022-07-29T03:07:06;99153.47;;;21.67;70.17
26376;BME280;30544;42.196;24.336;2022-07-29T03:09:35;99147.03;;;21.75;70.56
26376;BME280;30544;42.196;24.336;2022-07-29T03:12:04;99155.34;;;21.49;71.72
26376;BME280;30544;42.196;24.336;2022-07-29T03:14:31;99154.72;;;21.52;72.04
26376;BME280;30544;42.196;24.336;2022-07-29T03:16:59;99162.38;;;21.60;71.66
26376;BME280;30544;42.196;24.336;2022-07-29T03:19:26;99162.56;;;21.64;72.06
26376;BME280;30544;42.196;24.336;2022-07-29T03:21:57;99158.94;;;21.41;73.49
26376;BME280;30544;42.196;24.336;2022-07-29T03:24:29;99164.00;;;21.30;73.83
26376;BME280;30544;42.196;24.336;2022-07-29T03:26:56;99157.22;;;21.54;72.87
26376;BME280;30544;42.196;24.336;2022-07-29T03:29:24;99163.63;;;21.68;73.10
26376;BME280;30544;42.196;24.336;2022-07-29T03:31:51;99160.41;;;21.39;73.68
26376;BME280;30544;42.196;24.336;2022-07-29T03:34:17;99159.97;;;21.45;74.32
26376;BME280;30544;42.196;24.336;2022-07-29T03:36:45;99163.09;;;21.44;74.60
26376;BME280;30544;42.196;24.336;2022-07-29T03:39:15;99161.84;;;21.81;72.61
26376;BME280;30544;42.196;24.336;2022-07-29T03:41:44;99167.13;;;21.74;72.12
26376;BME280;30544;42.196;24.336;2022-07-29T03:44:13;99172.38;;;21.67;72.60
26376;BME280;30544;42.196;24.336;2022-07-29T03:46:43;99166.31;;;22.04;71.46
26376;BME280;30544;42.196;24.336;2022-07-29T03:49:11;99161.44;;;22.84;68.47
26376;BME280;30544;42.196;24.336;2022-07-29T03:51:39;99163.44;;;23.87;64.63
26376;BME280;30544;42.196;24.336;2022-07-29T03:54:06;99168.81;;;24.27;61.99
26376;BME280;30544;42.196;24.336;2022-07-29T03:56:38;99167.59;;;24.45;61.88
26376;BME280;30544;42.196;24.336;2022-07-29T03:59:06;99164.03;;;24.86;60.40
26376;BME280;30544;42.196;24.336;2022-07-29T04:01:34;99167.94;;;25.24;59.01
26376;BME280;30544;42.196;24.336;2022-07-29T04:04:02;99159.22;;;25.08;58.44
26376;BME280;30544;42.196;24.336;2022-07-29T04:06:38;99174.50;;;25.15;58.38
26376;BME280;30544;42.196;24.336;2022-07-29T04:09:05;99175.19;;;25.75;56.72
26376;BME280;30544;42.196;24.336;2022-07-29T04:11:32;99181.06;;;25.49;56.71
26376;BME280;30544;42.196;24.336;2022-07-29T04:14:00;99173.56;;;25.86;56.24
26376;BME280;30544;42.196;24.336;2022-07-29T04:16:27;99183.13;;;26.27;55.68
26376;BME280;30544;42.196;24.336;2022-07-29T04:18:54;99179.09;;;25.29;57.83
26376;BME280;30544;42.196;24.336;2022-07-29T04:21:21;99188.78;;;24.39;60.93
26376;BME280;30544;42.196;24.336;2022-07-29T04:23:47;99180.34;;;24.22;61.97
26376;BME280;30544;42.196;24.336;2022-07-29T04:26:15;99181.50;;;24.29;61.66
26376;BME280;30544;42.196;24.336;2022-07-29T04:28:42;99181.81;;;24.66;61.23
26376;BME280;30544;42.196;24.336;2022-07-29T04:31:11;99175.47;;;24.31;62.21
26376;BME280;30544;42.196;24.336;2022-07-29T04:33:39;99179.22;;;24.06;62.25
26376;BME280;30544;42.196;24.336;2022-07-29T04:36:06;99182.63;;;24.28;62.04
26376;BME280;30544;42.196;24.336;2022-07-29T04:38:33;99178.78;;;24.42;61.61
26376;BME280;30544;42.196;24.336;2022-07-29T04:40:59;99180.63;;;24.38;61.57
26376;BME280;30544;42.196;24.336;2022-07-29T04:43:26;99186.78;;;24.40;61.49
26376;BME280;30544;42.196;24.336;2022-07-29T04:45:53;99190.03;;;24.12;62.58
26376;BME280;30544;42.196;24.336;2022-07-29T04:48:21;99188.59;;;24.44;62.37
26376;BME280;30544;42.196;24.336;2022-07-29T04:50:48;99186.53;;;24.83;61.05
26376;BME280;30544;42.196;24.336;2022-07-29T04:53:15;99188.91;;;25.31;59.33
26376;BME280;30544;42.196;24.336;2022-07-29T04:55:41;99193.69;;;25.39;58.42
26376;BME280;30544;42.196;24.336;2022-07-29T04:58:08;99191.00;;;24.93;60.08
26376;BME280;30544;42.196;24.336;2022-07-29T05:00:35;99196.31;;;25.44;58.81
26376;BME280;30544;42.196;24.336;2022-07-29T05:03:02;99196.47;;;25.27;59.65
26376;BME280;30544;42.196;24.336;2022-07-29T05:05:30;99193.88;;;25.34;59.29
26376;BME280;30544;42.196;24.336;2022-07-29T05:07:57;99196.81;;;25.05;59.42
26376;BME280;30544;42.196;24.336;2022-07-29T05:10:24;99185.91;;;25.69;58.74
26376;BME280;30544;42.196;24.336;2022-07-29T05:12:51;99197.63;;;25.68;57.61
26376;BME280;30544;42.196;24.336;2022-07-29T05:15:18;99197.22;;;25.78;57.01
26376;BME280;30544;42.196;24.336;2022-07-29T05:17:45;99188.94;;;25.64;56.92
26376;BME280;30544;42.196;24.336;2022-07-29T05:20:12;99203.84;;;25.82;56.12
26376;BME280;30544;42.196;24.336;2022-07-29T05:22:40;99193.94;;;26.00;55.77
26376;BME280;30544;42.196;24.336;2022-07-29T05:25:07;99187.38;;;26.08;54.75
26376;BME280;30544;42.196;24.336;2022-07-29T05:27:35;99195.53;;;25.77;54.66
26376;BME280;30544;42.196;24.336;2022-07-29T05:30:02;99200.19;;;25.61;56.14
26376;BME280;30544;42.196;24.336;2022-07-29T05:32:29;99192.91;;;25.09;57.14
26376;BME280;30544;42.196;24.336;2022-07-29T05:34:56;99190.34;;;26.24;55.15
26376;BME280;30544;42.196;24.336;2022-07-29T05:37:23;99200.84;;;26.69;53.20
26376;BME280;30544;42.196;24.336;2022-07-29T05:39:51;99199.69;;;27.07;52.73
26376;BME280;30544;42.196;24.336;2022-07-29T05:42:18;99201.44;;;26.50;52.25
26376;BME280;30544;42.196;24.336;2022-07-29T05:44:45;99206.91;;;25.77;53.33
26376;BME280;30544;42.196;24.336;2022-07-29T05:47:12;99204.06;;;25.77;51.99
26376;BME280;30544;42.196;24.336;2022-07-29T05:49:39;99210.44;;;26.40;51.60
26376;BME280;30544;42.196;24.336;2022-07-29T05:52:06;99217.41;;;26.43;50.86
26376;BME280;30544;42.196;24.336;2022-07-29T05:54:33;99220.88;;;26.60;51.17
26376;BME280;30544;42.196;24.336;2022-07-29T05:57:02;99215.75;;;26.54;50.17
26376;BME280;30544;42.196;24.336;2022-07-29T05:59:28;99211.66;;;26.88;49.80
26376;BME280;30544;42.196;24.336;2022-07-29T06:01:55;99213.50;;;27.33;48.71
26376;BME280;30544;42.196;24.336;2022-07-29T06:04:22;99215.75;;;27.79;47.02
26376;BME280;30544;42.196;24.336;2022-07-29T06:06:49;99214.41;;;27.37;49.06
26376;BME280;30544;42.196;24.336;2022-07-29T06:09:16;99217.53;;;26.71;50.96
26376;BME280;30544;42.196;24.336;2022-07-29T06:11:43;99209.13;;;27.75;49.46
26376;BME280;30544;42.196;24.336;2022-07-29T06:14:11;99209.19;;;27.91;48.76
26376;BME280;30544;42.196;24.336;2022-07-29T06:16:38;99210.19;;;27.31;50.65
26376;BME280;30544;42.196;24.336;2022-07-29T06:19:05;99214.56;;;27.80;49.34
26376;BME280;30544;42.196;24.336;2022-07-29T06:21:32;99213.59;;;27.89;48.12
26376;BME280;30544;42.196;24.336;2022-07-29T06:23:58;99213.53;;;26.96;50.18
26376;BME280;30544;42.196;24.336;2022-07-29T06:26:25;99217.09;;;27.98;48.09
26376;BME280;30544;42.196;24.336;2022-07-29T06:28:52;99213.31;;;27.53;49.01
26376;BME280;30544;42.196;24.336;2022-07-29T06:31:20;99215.66;;;27.23;49.15
26376;BME280;30544;42.196;24.336;2022-07-29T06:33:47;99226.50;;;28.14;48.18
26376;BME280;30544;42.196;24.336;2022-07-29T06:36:14;99218.88;;;28.18;47.21
26376;BME280;30544;42.196;24.336;2022-07-29T06:38:41;99219.88;;;28.10;47.40
26376;BME280;30544;42.196;24.336;2022-07-29T06:41:08;99214.25;;;28.41;48.03
26376;BME280;30544;42.196;24.336;2022-07-29T06:43:38;99218.63;;;28.23;47.50
26376;BME280;30544;42.196;24.336;2022-07-29T06:46:07;99205.13;;;28.52;46.56
26376;BME280;30544;42.196;24.336;2022-07-29T06:48:36;99212.13;;;28.86;46.38
26376;BME280;30544;42.196;24.336;2022-07-29T06:51:04;99210.28;;;29.44;45.08
26376;BME280;30544;42.196;24.336;2022-07-29T06:53:32;99207.91;;;28.80;45.43
26376;BME280;30544;42.196;24.336;2022-07-29T06:56:00;99210.59;;;28.41;46.71
26376;BME280;30544;42.196;24.336;2022-07-29T06:58:28;99210.91;;;28.24;46.66
26376;BME280;30544;42.196;24.336;2022-07-29T07:00:56;99205.50;;;28.66;46.18
26376;BME280;30544;42.196;24.336;2022-07-29T07:03:23;99201.97;;;29.20;46.21
26376;BME280;30544;42.196;24.336;2022-07-29T07:05:52;99200.00;;;28.26;48.87
26376;BME280;30544;42.196;24.336;2022-07-29T07:08:20;99196.97;;;28.66;48.95
26376;BME280;30544;42.196;24.336;2022-07-29T07:10:48;99194.41;;;28.92;49.03
26376;BME280;30544;42.196;24.336;2022-07-29T07:13:15;99201.97;;;29.20;46.81
26376;BME280;30544;42.196;24.336;2022-07-29T07:15:42;99195.88;;;29.95;45.79
26376;BME280;30544;42.196;24.336;2022-07-29T07:18:09;99199.16;;;28.88;46.38
26376;BME280;30544;42.196;24.336;2022-07-29T07:20:36;99198.00;;;29.59;46.22
26376;BME280;30544;42.196;24.336;2022-07-29T07:23:04;99201.28;;;30.19;44.68
26376;BME280;30544;42.196;24.336;2022-07-29T07:25:31;99198.47;;;29.26;46.22
26376;BME280;30544;42.196;24.336;2022-07-29T07:27:58;99194.56;;;30.54;44.17
26376;BME280;30544;42.196;24.336;2022-07-29T07:30:26;99200.63;;;30.72;43.71
26376;BME280;30544;42.196;24.336;2022-07-29T07:32:53;99204.25;;;30.92;42.90
26376;BME280;30544;42.196;24.336;2022-07-29T07:35:20;99200.13;;;29.27;46.18
26376;BME280;30544;42.196;24.336;2022-07-29T07:37:47;99205.03;;;29.11;46.13
26376;BME280;30544;42.196;24.336;2022-07-29T07:40:15;99201.09;;;30.09;44.19
26376;BME280;30544;42.196;24.336;2022-07-29T07:42:42;99191.41;;;30.82;43.79
26376;BME280;30544;42.196;24.336;2022-07-29T07:45:10;99200.09;;;30.89;43.95
26376;BME280;30544;42.196;24.336;2022-07-29T07:47:37;99202.19;;;30.23;44.33
26376;BME280;30544;42.196;24.336;2022-07-29T07:50:07;99206.56;;;31.09;42.43
26376;BME280;30544;42.196;24.336;2022-07-29T07:52:34;99199.06;;;30.74;42.83
26376;BME280;30544;42.196;24.336;2022-07-29T07:55:01;99195.41;;;31.57;42.09
26376;BME280;30544;42.196;24.336;2022-07-29T07:57:29;99193.78;;;31.03;42.17
26376;BME280;30544;42.196;24.336;2022-07-29T07:59:56;99189.75;;;31.60;42.03
26376;BME280;30544;42.196;24.336;2022-07-29T08:02:23;99199.97;;;30.36;42.04
26376;BME280;30544;42.196;24.336;2022-07-29T08:04:50;99193.72;;;30.99;41.91
26376;BME280;30544;42.196;24.336;2022-07-29T08:07:16;99188.44;;;31.58;41.05
26376;BME280;30544;42.196;24.336;2022-07-29T08:09:43;99189.94;;;31.45;41.22
26376;BME280;30544;42.196;24.336;2022-07-29T08:12:10;99193.78;;;30.76;42.64
26376;BME280;30544;42.196;24.336;2022-07-29T08:14:38;99193.63;;;30.69;42.17
26376;BME280;30544;42.196;24.336;2022-07-29T08:17:05;99185.59;;;31.58;41.05
26376;BME280;30544;42.196;24.336;2022-07-29T08:19:32;99197.59;;;30.88;42.65
26376;BME280;30544;42.196;24.336;2022-07-29T08:21:59;99180.25;;;31.86;40.59
26376;BME280;30544;42.196;24.336;2022-07-29T08:24:25;99192.22;;;30.82;41.05
26376;BME280;30544;42.196;24.336;2022-07-29T08:27:17;99186.25;;;30.45;40.72
26376;BME280;30544;42.196;24.336;2022-07-29T08:29:46;99184.84;;;31.61;39.19
26376;BME280;30544;42.196;24.336;2022-07-29T08:32:13;99178.28;;;31.60;39.66
26376;BME280;30544;42.196;24.336;2022-07-29T08:34:40;99182.66;;;30.98;39.78
26376;BME280;30544;42.196;24.336;2022-07-29T08:37:07;99182.47;;;31.70;40.24
26376;BME280;30544;42.196;24.336;2022-07-29T08:39:34;99176.75;;;32.03;38.57
26376;BME280;30544;42.196;24.336;2022-07-29T08:42:01;99180.53;;;31.18;39.39
26376;BME280;30544;42.196;24.336;2022-07-29T08:44:28;99174.19;;;31.61;38.40
26376;BME280;30544;42.196;24.336;2022-07-29T08:46:57;99175.63;;;32.12;37.91
26376;BME280;30544;42.196;24.336;2022-07-29T08:49:23;99168.78;;;32.23;38.15
26376;BME280;30544;42.196;24.336;2022-07-29T08:51:51;99171.69;;;32.68;37.66
26376;BME280;30544;42.196;24.336;2022-07-29T08:54:20;99168.38;;;32.25;37.18
26376;BME280;30544;42.196;24.336;2022-07-29T08:56:48;99165.06;;;31.82;37.59
26376;BME280;30544;42.196;24.336;2022-07-29T08:59:19;99166.19;;;32.48;37.19
26376;BME280;30544;42.196;24.336;2022-07-29T09:01:48;99165.66;;;31.98;37.79
26376;BME280;30544;42.196;24.336;2022-07-29T09:04:18;99165.53;;;31.88;37.81
26376;BME280;30544;42.196;24.336;2022-07-29T09:06:47;99158.50;;;32.19;37.92
26376;BME280;30544;42.196;24.336;2022-07-29T09:09:15;99155.31;;;32.72;38.38
26376;BME280;30544;42.196;24.336;2022-07-29T09:11:43;99161.34;;;31.78;38.17
26376;BME280;30544;42.196;24.336;2022-07-29T09:14:11;99154.72;;;31.74;38.41
26376;BME280;30544;42.196;24.336;2022-07-29T09:16:46;99152.13;;;32.33;36.91
26376;BME280;30544;42.196;24.336;2022-07-29T09:19:24;99148.88;;;32.82;35.32
26376;BME280;30544;42.196;24.336;2022-07-29T09:21:52;99144.63;;;33.20;35.41
26376;BME280;30544;42.196;24.336;2022-07-29T09:24:24;99147.25;;;31.69;36.93
26376;BME280;30544;42.196;24.336;2022-07-29T09:26:51;99145.00;;;31.82;37.89
26376;BME280;30544;42.196;24.336;2022-07-29T09:29:20;99138.25;;;32.86;36.57
26376;BME280;30544;42.196;24.336;2022-07-29T09:31:48;99134.06;;;33.35;34.19
26376;BME280;30544;42.196;24.336;2022-07-29T09:34:17;99131.81;;;33.07;35.22
26376;BME280;30544;42.196;24.336;2022-07-29T09:36:50;99132.50;;;33.48;34.56
26376;BME280;30544;42.196;24.336;2022-07-29T09:39:27;99133.13;;;33.20;34.74
26376;BME280;30544;42.196;24.336;2022-07-29T09:41:57;99136.09;;;32.76;35.78
26376;BME280;30544;42.196;24.336;2022-07-29T09:44:24;99139.63;;;32.18;36.05
26376;BME280;30544;42.196;24.336;2022-07-29T09:46:54;99124.94;;;32.64;36.20
26376;BME280;30544;42.196;24.336;2022-07-29T09:49:21;99126.56;;;32.20;35.83
26376;BME280;30544;42.196;24.336;2022-07-29T09:51:59;99130.25;;;32.61;37.39
26376;BME280;30544;42.196;24.336;2022-07-29T09:54:26;99122.94;;;32.75;36.79
26376;BME280;30544;42.196;24.336;2022-07-29T09:56:54;99128.38;;;32.36;36.35
26376;BME280;30544;42.196;24.336;2022-07-29T09:59:21;99121.50;;;32.44;34.00
26376;BME280;30544;42.196;24.336;2022-07-29T10:01:51;99115.25;;;32.35;34.62
26376;BME280;30544;42.196;24.336;2022-07-29T10:04:19;99115.75;;;32.44;34.35
26376;BME280;30544;42.196;24.336;2022-07-29T10:06:57;99115.97;;;33.31;33.59
26376;BME280;30544;42.196;24.336;2022-07-29T10:09:25;99105.47;;;33.67;31.86
26376;BME280;30544;42.196;24.336;2022-07-29T10:12:09;99117.53;;;33.21;32.18
26376;BME280;30544;42.196;24.336;2022-07-29T10:14:36;99106.00;;;33.10;32.34
26376;BME280;30544;42.196;24.336;2022-07-29T10:17:04;99113.31;;;33.01;32.19
26376;BME280;30544;42.196;24.336;2022-07-29T10:19:32;99108.38;;;32.98;32.94
26376;BME280;30544;42.196;24.336;2022-07-29T10:22:02;99107.31;;;32.65;32.26
26376;BME280;30544;42.196;24.336;2022-07-29T10:24:30;99091.78;;;33.35;31.44
26376;BME280;30544;42.196;24.336;2022-07-29T10:26:58;99099.66;;;33.56;31.12
26376;BME280;30544;42.196;24.336;2022-07-29T10:29:26;99098.19;;;34.05;31.58
26376;BME280;30544;42.196;24.336;2022-07-29T10:32:10;99091.19;;;33.92;30.25
26376;BME280;30544;42.196;24.336;2022-07-29T10:34:58;99087.56;;;34.27;28.16
26376;BME280;30544;42.196;24.336;2022-07-29T10:37:33;99081.00;;;34.41;28.71
26376;BME280;30544;42.196;24.336;2022-07-29T10:40:11;99082.66;;;34.45;27.98
26376;BME280;30544;42.196;24.336;2022-07-29T10:43:06;99083.44;;;34.67;28.07
26376;BME280;30544;42.196;24.336;2022-07-29T10:45:35;99075.22;;;34.12;27.05
26376;BME280;30544;42.196;24.336;2022-07-29T10:48:03;99066.19;;;34.53;28.42
26376;BME280;30544;42.196;24.336;2022-07-29T10:50:52;99076.06;;;34.52;28.42
26376;BME280;30544;42.196;24.336;2022-07-29T10:53:20;99075.19;;;34.23;28.11
26376;BME280;30544;42.196;24.336;2022-07-29T10:55:47;99069.28;;;33.48;28.66
26376;BME280;30544;42.196;24.336;2022-07-29T10:58:17;99074.44;;;34.47;29.06
26376;BME280;30544;42.196;24.336;2022-07-29T11:00:44;99072.50;;;33.36;28.77
26376;BME280;30544;42.196;24.336;2022-07-29T11:03:42;99060.34;;;33.78;28.57
26376;BME280;30544;42.196;24.336;2022-07-29T11:06:10;99055.47;;;34.18;29.11
26376;BME280;30544;42.196;24.336;2022-07-29T11:08:38;99059.97;;;33.87;29.20
26376;BME280;30544;42.196;24.336;2022-07-29T11:11:35;99053.44;;;34.39;27.88
26376;BME280;30544;42.196;24.336;2022-07-29T11:14:06;99047.69;;;34.61;27.59
26376;BME280;30544;42.196;24.336;2022-07-29T11:17:02;99052.50;;;33.71;29.19
26376;BME280;30544;42.196;24.336;2022-07-29T11:19:30;99046.88;;;34.60;28.12
26376;BME280;30544;42.196;24.336;2022-07-29T11:21:58;99032.44;;;34.78;29.03
26376;BME280;30544;42.196;24.336;2022-07-29T11:24:27;99031.59;;;34.88;26.97
26376;BME280;30544;42.196;24.336;2022-07-29T11:27:15;99031.66;;;34.28;26.62
26376;BME280;30544;42.196;24.336;2022-07-29T11:29:54;99030.03;;;34.37;26.57
26376;BME280;30544;42.196;24.336;2022-07-29T11:32:23;99025.06;;;34.66;26.76
26376;BME280;30544;42.196;24.336;2022-07-29T11:35:11;99014.72;;;34.97;27.32
26376;BME280;30544;42.196;24.336;2022-07-29T11:37:38;99020.09;;;34.71;28.74
26376;BME280;30544;42.196;24.336;2022-07-29T11:40:16;99024.28;;;34.45;25.98
26376;BME280;30544;42.196;24.336;2022-07-29T11:42:48;99017.19;;;34.85;28.10
26376;BME280;30544;42.196;24.336;2022-07-29T11:45:24;99013.56;;;34.63;25.98
26376;BME280;30544;42.196;24.336;2022-07-29T11:47:58;99011.09;;;34.19;26.60
26376;BME280;30544;42.196;24.336;2022-07-29T11:50:33;99006.09;;;34.83;25.98
26376;BME280;30544;42.196;24.336;2022-07-29T11:53:02;98998.63;;;35.14;25.62
26376;BME280;30544;42.196;24.336;2022-07-29T11:55:31;99006.09;;;34.90;25.05
26376;BME280;30544;42.196;24.336;2022-07-29T11:58:01;98993.75;;;34.83;25.62
26376;BME280;30544;42.196;24.336;2022-07-29T12:00:30;98990.72;;;35.29;25.67
26376;BME280;30544;42.196;24.336;2022-07-29T12:02:59;98997.03;;;34.92;25.60
26376;BME280;30544;42.196;24.336;2022-07-29T12:05:40;98990.38;;;35.09;25.50
26376;BME280;30544;42.196;24.336;2022-07-29T12:08:13;98986.19;;;35.28;25.84
26376;BME280;30544;42.196;24.336;2022-07-29T12:10:42;98984.97;;;35.22;25.64
26376;BME280;30544;42.196;24.336;2022-07-29T12:13:10;98986.06;;;35.56;24.83
26376;BME280;30544;42.196;24.336;2022-07-29T12:15:36;98980.31;;;35.53;25.44
26376;BME280;30544;42.196;24.336;2022-07-29T12:18:11;98976.28;;;35.33;25.35
26376;BME280;30544;42.196;24.336;2022-07-29T12:20:38;98985.47;;;35.03;25.03
26376;BME280;30544;42.196;24.336;2022-07-29T12:23:06;98978.34;;;35.32;24.96
26376;BME280;30544;42.196;24.336;2022-07-29T12:25:34;98972.03;;;35.58;24.79
26376;BME280;30544;42.196;24.336;2022-07-29T12:28:04;98979.56;;;36.04;24.67
26376;BME280;30544;42.196;24.336;2022-07-29T12:30:37;98976.53;;;35.67;24.92
26376;BME280;30544;42.196;24.336;2022-07-29T12:33:17;98967.78;;;35.77;24.30
26376;BME280;30544;42.196;24.336;2022-07-29T12:35:46;98966.03;;;35.94;25.29
26376;BME280;30544;42.196;24.336;2022-07-29T12:38:14;98961.84;;;35.43;25.47
26376;BME280;30544;42.196;24.336;2022-07-29T12:40:42;98964.16;;;34.75;25.51
26376;BME280;30544;42.196;24.336;2022-07-29T12:43:12;98967.75;;;35.15;25.12
26376;BME280;30544;42.196;24.336;2022-07-29T12:45:41;98962.78;;;35.19;25.36
26376;BME280;30544;42.196;24.336;2022-07-29T12:48:08;98958.19;;;35.98;24.82
26376;BME280;30544;42.196;24.336;2022-07-29T12:50:36;98943.38;;;35.93;23.81
26376;BME280;30544;42.196;24.336;2022-07-29T12:53:10;98950.03;;;35.86;22.70
26376;BME280;30544;42.196;24.336;2022-07-29T12:55:39;98947.97;;;35.83;23.71
26376;BME280;30544;42.196;24.336;2022-07-29T12:58:05;98947.34;;;35.61;24.28
26376;BME280;30544;42.196;24.336;2022-07-29T13:00:34;98942.38;;;35.58;24.76
26376;BME280;30544;42.196;24.336;2022-07-29T13:03:01;98933.91;;;35.92;23.94
26376;BME280;30544;42.196;24.336;2022-07-29T13:05:42;98936.66;;;36.06;23.64